sensor_id;sensor_type;location;lat;lon;timestamp;temperature;humidity
80250;DHT22;69561;37.974;23.708;2023-04-25T00:01:48;24.80;41.70
80250;DHT22;69561;37.974;23.708;2023-04-25T00:04:14;24.80;41.70
80250;DHT22;69561;37.974;23.708;2023-04-25T00:06:39;24.80;41.70
80250;DHT22;69561;37.974;23.708;2023-04-25T00:09:06;24.80;41.70
80250;DHT22;69561;37.974;23.708;2023-04-25T00:11:36;24.80;41.60
80250;DHT22;69561;37.974;23.708;2023-04-25T00:14:03;24.80;41.60
80250;DHT22;69561;37.974;23.708;2023-04-25T00:16:29;24.80;41.60
80250;DHT22;69561;37.974;23.708;2023-04-25T00:18:58;24.80;41.40
80250;DHT22;69561;37.974;23.708;2023-04-25T00:21:24;24.80;41.40
80250;DHT22;69561;37.974;23.708;2023-04-25T00:23:52;24.80;41.20
80250;DHT22;69561;37.974;23.708;2023-04-25T00:26:19;24.90;41.20
80250;DHT22;69561;37.974;23.708;2023-04-25T00:28:46;24.80;41.00
80250;DHT22;69561;37.974;23.708;2023-04-25T00:31:12;24.90;40.80
80250;DHT22;69561;37.974;23.708;2023-04-25T00:33:38;24.80;40.70
80250;DHT22;69561;37.974;23.708;2023-04-25T00:36:03;24.80;40.40
80250;DHT22;69561;37.974;23.708;2023-04-25T00:38:29;24.80;40.30
80250;DHT22;69561;37.974;23.708;2023-04-25T00:40:55;24.80;40.10
80250;DHT22;69561;37.974;23.708;2023-04-25T00:43:21;24.80;40.10
80250;DHT22;69561;37.974;23.708;2023-04-25T00:45:47;24.80;40.00
80250;DHT22;69561;37.974;23.708;2023-04-25T00:48:14;24.80;40.10
80250;DHT22;69561;37.974;23.708;2023-04-25T00:50:40;24.80;40.10
80250;DHT22;69561;37.974;23.708;2023-04-25T00:53:06;24.80;40.10
80250;DHT22;69561;37.974;23.708;2023-04-25T00:55:33;24.80;40.00
80250;DHT22;69561;37.974;23.708;2023-04-25T00:58:00;24.80;40.00
80250;DHT22;69561;37.974;23.708;2023-04-25T01:00:26;24.80;39.90
80250;DHT22;69561;37.974;23.708;2023-04-25T01:02:52;24.90;40.00
80250;DHT22;69561;37.974;23.708;2023-04-25T01:05:17;24.80;39.90
80250;DHT22;69561;37.974;23.708;2023-04-25T01:07:44;24.80;39.90
80250;DHT22;69561;37.974;23.708;2023-04-25T01:10:10;24.90;39.70
80250;DHT22;69561;37.974;23.708;2023-04-25T01:12:37;24.80;39.30
80250;DHT22;69561;37.974;23.708;2023-04-25T01:15:03;24.80;39.20
80250;DHT22;69561;37.974;23.708;2023-04-25T01:17:29;24.80;39.20
80250;DHT22;69561;37.974;23.708;2023-04-25T01:19:55;24.80;39.20
80250;DHT22;69561;37.974;23.708;2023-04-25T01:22:20;24.80;39.10
80250;DHT22;69561;37.974;23.708;2023-04-25T01:24:46;24.80;39.00
80250;DHT22;69561;37.974;23.708;2023-04-25T01:27:12;24.80;38.90
80250;DHT22;69561;37.974;23.708;2023-04-25T01:29:38;24.80;38.90
80250;DHT22;69561;37.974;23.708;2023-04-25T01:32:05;24.80;38.90
80250;DHT22;69561;37.974;23.708;2023-04-25T01:34:31;24.80;38.70
80250;DHT22;69561;37.974;23.708;2023-04-25T01:36:59;24.70;38.70
80250;DHT22;69561;37.974;23.708;2023-04-25T01:39:27;24.80;38.70
80250;DHT22;69561;37.974;23.708;2023-04-25T01:41:53;24.80;38.70
80250;DHT22;69561;37.974;23.708;2023-04-25T01:44:18;24.80;38.70
80250;DHT22;69561;37.974;23.708;2023-04-25T01:46:44;24.80;38.70
80250;DHT22;69561;37.974;23.708;2023-04-25T01:49:10;24.70;38.70
80250;DHT22;69561;37.974;23.708;2023-04-25T01:51:36;24.80;38.70
80250;DHT22;69561;37.974;23.708;2023-04-25T01:54:02;24.80;38.80
80250;DHT22;69561;37.974;23.708;2023-04-25T01:56:32;24.80;38.80
80250;DHT22;69561;37.974;23.708;2023-04-25T01:58:58;24.80;38.70
80250;DHT22;69561;37.974;23.708;2023-04-25T02:01:24;24.80;38.50
80250;DHT22;69561;37.974;23.708;2023-04-25T02:03:50;24.80;38.40
80250;DHT22;69561;37.974;23.708;2023-04-25T02:06:16;24.80;38.40
80250;DHT22;69561;37.974;23.708;2023-04-25T02:08:41;24.80;38.40
80250;DHT22;69561;37.974;23.708;2023-04-25T02:11:07;24.80;38.30
80250;DHT22;69561;37.974;23.708;2023-04-25T02:13:33;24.80;38.20
80250;DHT22;69561;37.974;23.708;2023-04-25T02:15:59;24.80;38.10
80250;DHT22;69561;37.974;23.708;2023-04-25T02:18:24;24.80;38.00
80250;DHT22;69561;37.974;23.708;2023-04-25T02:20:51;24.80;38.00
80250;DHT22;69561;37.974;23.708;2023-04-25T02:23:17;24.80;37.90
80250;DHT22;69561;37.974;23.708;2023-04-25T02:25:44;24.80;37.80
80250;DHT22;69561;37.974;23.708;2023-04-25T02:28:10;24.70;37.60
80250;DHT22;69561;37.974;23.708;2023-04-25T02:30:36;24.70;37.60
80250;DHT22;69561;37.974;23.708;2023-04-25T02:33:02;24.80;37.60
80250;DHT22;69561;37.974;23.708;2023-04-25T02:35:27;24.70;37.40
80250;DHT22;69561;37.974;23.708;2023-04-25T02:37:53;24.70;37.50
80250;DHT22;69561;37.974;23.708;2023-04-25T02:40:19;24.70;37.40
80250;DHT22;69561;37.974;23.708;2023-04-25T02:42:45;24.70;37.40
80250;DHT22;69561;37.974;23.708;2023-04-25T02:45:11;24.70;37.30
80250;DHT22;69561;37.974;23.708;2023-04-25T02:47:37;24.60;37.30
80250;DHT22;69561;37.974;23.708;2023-04-25T02:50:03;24.60;37.30
80250;DHT22;69561;37.974;23.708;2023-04-25T02:52:29;24.60;37.30
80250;DHT22;69561;37.974;23.708;2023-04-25T02:54:55;24.60;37.30
80250;DHT22;69561;37.974;23.708;2023-04-25T02:57:20;24.60;37.20
80250;DHT22;69561;37.974;23.708;2023-04-25T02:59:46;24.60;37.20
80250;DHT22;69561;37.974;23.708;2023-04-25T03:02:12;24.60;37.20
80250;DHT22;69561;37.974;23.708;2023-04-25T03:04:37;24.60;37.20
80250;DHT22;69561;37.974;23.708;2023-04-25T03:07:04;24.60;37.20
80250;DHT22;69561;37.974;23.708;2023-04-25T03:09:29;24.60;37.30
80250;DHT22;69561;37.974;23.708;2023-04-25T03:11:55;24.60;37.30
80250;DHT22;69561;37.974;23.708;2023-04-25T03:14:21;24.60;37.30
80250;DHT22;69561;37.974;23.708;2023-04-25T03:16:46;24.60;37.30
80250;DHT22;69561;37.974;23.708;2023-04-25T03:19:12;24.60;37.40
80250;DHT22;69561;37.974;23.708;2023-04-25T03:21:41;24.60;37.50
80250;DHT22;69561;37.974;23.708;2023-04-25T03:24:07;24.60;37.50
80250;DHT22;69561;37.974;23.708;2023-04-25T03:26:32;24.60;37.50
80250;DHT22;69561;37.974;23.708;2023-04-25T03:28:58;24.60;37.40
80250;DHT22;69561;37.974;23.708;2023-04-25T03:31:24;24.60;37.50
80250;DHT22;69561;37.974;23.708;2023-04-25T03:33:50;24.60;37.50
80250;DHT22;69561;37.974;23.708;2023-04-25T03:36:15;24.60;37.50
80250;DHT22;69561;37.974;23.708;2023-04-25T03:38:41;24.60;37.50
80250;DHT22;69561;37.974;23.708;2023-04-25T03:41:07;24.60;37.60
80250;DHT22;69561;37.974;23.708;2023-04-25T03:43:33;24.60;37.60
80250;DHT22;69561;37.974;23.708;2023-04-25T03:45:59;24.60;37.70
80250;DHT22;69561;37.974;23.708;2023-04-25T03:48:26;24.60;37.70
80250;DHT22;69561;37.974;23.708;2023-04-25T03:50:52;24.60;37.70
80250;DHT22;69561;37.974;23.708;2023-04-25T03:53:18;24.60;37.70
80250;DHT22;69561;37.974;23.708;2023-04-25T03:55:43;24.60;37.70
80250;DHT22;69561;37.974;23.708;2023-04-25T03:58:09;24.60;37.80
80250;DHT22;69561;37.974;23.708;2023-04-25T04:00:35;24.60;37.80
80250;DHT22;69561;37.974;23.708;2023-04-25T04:03:01;24.60;37.80
80250;DHT22;69561;37.974;23.708;2023-04-25T04:05:27;24.60;37.80
80250;DHT22;69561;37.974;23.708;2023-04-25T04:07:54;24.60;37.80
80250;DHT22;69561;37.974;23.708;2023-04-25T04:10:20;24.60;37.80
80250;DHT22;69561;37.974;23.708;2023-04-25T04:12:45;24.80;38.10
80250;DHT22;69561;37.974;23.708;2023-04-25T04:15:11;25.00;38.30
80250;DHT22;69561;37.974;23.708;2023-04-25T04:17:37;25.10;37.90
80250;DHT22;69561;37.974;23.708;2023-04-25T04:20:04;25.30;37.60
80250;DHT22;69561;37.974;23.708;2023-04-25T04:22:31;25.50;37.70
80250;DHT22;69561;37.974;23.708;2023-04-25T04:24:56;25.60;37.50
80250;DHT22;69561;37.974;23.708;2023-04-25T04:27:23;25.80;37.50
80250;DHT22;69561;37.974;23.708;2023-04-25T04:29:48;25.90;37.20
80250;DHT22;69561;37.974;23.708;2023-04-25T04:32:16;26.10;37.10
80250;DHT22;69561;37.974;23.708;2023-04-25T04:34:42;26.30;36.90
80250;DHT22;69561;37.974;23.708;2023-04-25T04:37:08;26.40;36.80
80250;DHT22;69561;37.974;23.708;2023-04-25T04:39:35;26.50;36.40
80250;DHT22;69561;37.974;23.708;2023-04-25T04:42:01;26.70;36.20
80250;DHT22;69561;37.974;23.708;2023-04-25T04:44:27;26.90;35.90
80250;DHT22;69561;37.974;23.708;2023-04-25T04:46:54;27.20;35.80
80250;DHT22;69561;37.974;23.708;2023-04-25T04:49:20;27.40;35.50
80250;DHT22;69561;37.974;23.708;2023-04-25T04:51:46;27.50;35.20
80250;DHT22;69561;37.974;23.708;2023-04-25T04:54:12;27.70;35.20
80250;DHT22;69561;37.974;23.708;2023-04-25T04:56:38;27.60;35.00
80250;DHT22;69561;37.974;23.708;2023-04-25T04:59:04;27.50;35.00
80250;DHT22;69561;37.974;23.708;2023-04-25T05:01:30;27.30;35.40
80250;DHT22;69561;37.974;23.708;2023-04-25T05:03:56;27.00;35.50
80250;DHT22;69561;37.974;23.708;2023-04-25T05:06:26;26.80;35.80
80250;DHT22;69561;37.974;23.708;2023-04-25T05:08:52;26.60;36.10
80250;DHT22;69561;37.974;23.708;2023-04-25T05:11:19;26.40;36.30
80250;DHT22;69561;37.974;23.708;2023-04-25T05:13:45;26.30;36.40
80250;DHT22;69561;37.974;23.708;2023-04-25T05:16:11;26.20;36.50
80250;DHT22;69561;37.974;23.708;2023-04-25T05:18:37;26.20;36.70
80250;DHT22;69561;37.974;23.708;2023-04-25T05:21:03;26.10;36.70
80250;DHT22;69561;37.974;23.708;2023-04-25T05:23:29;26.00;36.70
80250;DHT22;69561;37.974;23.708;2023-04-25T05:25:56;26.00;36.60
80250;DHT22;69561;37.974;23.708;2023-04-25T05:28:21;25.90;36.40
80250;DHT22;69561;37.974;23.708;2023-04-25T05:30:47;25.90;36.40
80250;DHT22;69561;37.974;23.708;2023-04-25T05:33:13;25.80;36.30
80250;DHT22;69561;37.974;23.708;2023-04-25T05:35:39;25.80;36.30
80250;DHT22;69561;37.974;23.708;2023-04-25T05:38:05;25.80;36.40
80250;DHT22;69561;37.974;23.708;2023-04-25T05:40:31;25.80;36.00
80250;DHT22;69561;37.974;23.708;2023-04-25T05:42:57;25.80;35.90
80250;DHT22;69561;37.974;23.708;2023-04-25T05:45:23;25.70;35.70
80250;DHT22;69561;37.974;23.708;2023-04-25T05:47:48;25.70;35.60
80250;DHT22;69561;37.974;23.708;2023-04-25T05:50:14;25.70;35.60
80250;DHT22;69561;37.974;23.708;2023-04-25T05:52:40;25.70;35.60
80250;DHT22;69561;37.974;23.708;2023-04-25T05:55:06;25.70;35.60
80250;DHT22;69561;37.974;23.708;2023-04-25T05:57:31;25.70;35.60
80250;DHT22;69561;37.974;23.708;2023-04-25T05:59:57;25.60;35.50
80250;DHT22;69561;37.974;23.708;2023-04-25T06:02:23;25.60;35.40
80250;DHT22;69561;37.974;23.708;2023-04-25T06:04:51;25.60;35.40
80250;DHT22;69561;37.974;23.708;2023-04-25T06:07:18;25.60;35.40
80250;DHT22;69561;37.974;23.708;2023-04-25T06:09:44;25.60;35.30
80250;DHT22;69561;37.974;23.708;2023-04-25T06:12:10;25.60;35.30
80250;DHT22;69561;37.974;23.708;2023-04-25T06:14:36;25.60;35.20
80250;DHT22;69561;37.974;23.708;2023-04-25T06:17:03;25.60;35.20
80250;DHT22;69561;37.974;23.708;2023-04-25T06:19:35;25.60;35.20
80250;DHT22;69561;37.974;23.708;2023-04-25T06:22:02;25.60;35.20
80250;DHT22;69561;37.974;23.708;2023-04-25T06:24:28;25.50;35.20
80250;DHT22;69561;37.974;23.708;2023-04-25T06:26:54;25.50;35.10
80250;DHT22;69561;37.974;23.708;2023-04-25T06:29:20;25.50;35.30
80250;DHT22;69561;37.974;23.708;2023-04-25T06:31:46;25.50;35.20
80250;DHT22;69561;37.974;23.708;2023-04-25T06:34:12;25.40;35.20
80250;DHT22;69561;37.974;23.708;2023-04-25T06:36:38;25.40;35.10
80250;DHT22;69561;37.974;23.708;2023-04-25T06:39:04;25.40;35.10
80250;DHT22;69561;37.974;23.708;2023-04-25T06:41:30;25.40;35.20
80250;DHT22;69561;37.974;23.708;2023-04-25T06:43:55;25.40;35.20
80250;DHT22;69561;37.974;23.708;2023-04-25T06:46:21;25.40;35.30
80250;DHT22;69561;37.974;23.708;2023-04-25T06:48:47;25.40;35.30
80250;DHT22;69561;37.974;23.708;2023-04-25T06:51:12;25.40;35.40
80250;DHT22;69561;37.974;23.708;2023-04-25T06:53:39;25.30;35.20
80250;DHT22;69561;37.974;23.708;2023-04-25T06:56:05;25.30;35.30
80250;DHT22;69561;37.974;23.708;2023-04-25T06:58:31;25.20;35.40
80250;DHT22;69561;37.974;23.708;2023-04-25T07:00:57;25.20;35.70
80250;DHT22;69561;37.974;23.708;2023-04-25T07:03:23;25.20;35.90
80250;DHT22;69561;37.974;23.708;2023-04-25T07:05:49;25.10;35.60
80250;DHT22;69561;37.974;23.708;2023-04-25T07:08:16;25.20;35.30
80250;DHT22;69561;37.974;23.708;2023-04-25T07:10:42;25.20;35.20
80250;DHT22;69561;37.974;23.708;2023-04-25T07:13:08;25.20;35.10
80250;DHT22;69561;37.974;23.708;2023-04-25T07:15:34;25.30;35.00
80250;DHT22;69561;37.974;23.708;2023-04-25T07:18:00;25.30;35.00
80250;DHT22;69561;37.974;23.708;2023-04-25T07:20:25;25.30;34.90
80250;DHT22;69561;37.974;23.708;2023-04-25T07:22:53;25.30;35.20
80250;DHT22;69561;37.974;23.708;2023-04-25T07:25:19;25.20;35.40
80250;DHT22;69561;37.974;23.708;2023-04-25T07:27:45;25.20;35.40
80250;DHT22;69561;37.974;23.708;2023-04-25T07:30:11;25.30;35.60
80250;DHT22;69561;37.974;23.708;2023-04-25T07:32:38;25.20;35.90
80250;DHT22;69561;37.974;23.708;2023-04-25T07:35:04;25.20;36.00
80250;DHT22;69561;37.974;23.708;2023-04-25T07:37:30;25.30;36.10
80250;DHT22;69561;37.974;23.708;2023-04-25T07:39:55;25.30;35.90
80250;DHT22;69561;37.974;23.708;2023-04-25T07:42:21;25.30;35.90
80250;DHT22;69561;37.974;23.708;2023-04-25T07:44:47;25.20;35.70
80250;DHT22;69561;37.974;23.708;2023-04-25T07:47:12;25.20;35.70
80250;DHT22;69561;37.974;23.708;2023-04-25T07:49:39;25.20;36.00
80250;DHT22;69561;37.974;23.708;2023-04-25T07:52:06;25.20;35.80
80250;DHT22;69561;37.974;23.708;2023-04-25T07:54:32;25.20;35.80
80250;DHT22;69561;37.974;23.708;2023-04-25T07:56:58;25.30;35.90
80250;DHT22;69561;37.974;23.708;2023-04-25T07:59:24;25.30;35.90
80250;DHT22;69561;37.974;23.708;2023-04-25T08:01:50;25.30;35.90
80250;DHT22;69561;37.974;23.708;2023-04-25T08:04:15;25.30;35.90
80250;DHT22;69561;37.974;23.708;2023-04-25T08:06:42;25.40;36.00
80250;DHT22;69561;37.974;23.708;2023-04-25T08:09:08;25.40;36.10
80250;DHT22;69561;37.974;23.708;2023-04-25T08:11:35;25.30;36.00
80250;DHT22;69561;37.974;23.708;2023-04-25T08:14:01;25.40;36.10
80250;DHT22;69561;37.974;23.708;2023-04-25T08:16:27;25.40;36.10
80250;DHT22;69561;37.974;23.708;2023-04-25T08:18:53;25.40;36.10
80250;DHT22;69561;37.974;23.708;2023-04-25T08:21:19;25.40;36.10
80250;DHT22;69561;37.974;23.708;2023-04-25T08:23:45;25.40;36.10
80250;DHT22;69561;37.974;23.708;2023-04-25T08:26:11;25.40;36.00
80250;DHT22;69561;37.974;23.708;2023-04-25T08:28:37;25.50;36.10
80250;DHT22;69561;37.974;23.708;2023-04-25T08:31:03;25.50;36.10
80250;DHT22;69561;37.974;23.708;2023-04-25T08:33:29;25.50;36.10
80250;DHT22;69561;37.974;23.708;2023-04-25T08:35:55;25.50;36.10
80250;DHT22;69561;37.974;23.708;2023-04-25T08:38:21;25.50;36.00
80250;DHT22;69561;37.974;23.708;2023-04-25T08:40:49;25.50;35.90
80250;DHT22;69561;37.974;23.708;2023-04-25T08:43:18;25.50;35.90
80250;DHT22;69561;37.974;23.708;2023-04-25T08:45:44;25.50;35.90
80250;DHT22;69561;37.974;23.708;2023-04-25T08:48:13;25.50;35.80
80250;DHT22;69561;37.974;23.708;2023-04-25T08:50:53;25.50;35.80
80250;DHT22;69561;37.974;23.708;2023-04-25T08:53:25;25.50;35.90
80250;DHT22;69561;37.974;23.708;2023-04-25T08:55:53;25.50;36.10
80250;DHT22;69561;37.974;23.708;2023-04-25T08:58:19;25.50;36.10
80250;DHT22;69561;37.974;23.708;2023-04-25T09:00:48;25.50;36.10
80250;DHT22;69561;37.974;23.708;2023-04-25T09:03:15;25.50;36.10
80250;DHT22;69561;37.974;23.708;2023-04-25T09:05:42;25.50;36.00
80250;DHT22;69561;37.974;23.708;2023-04-25T09:08:08;25.50;35.90
80250;DHT22;69561;37.974;23.708;2023-04-25T09:10:34;25.50;35.90
80250;DHT22;69561;37.974;23.708;2023-04-25T09:13:10;25.50;36.00
80250;DHT22;69561;37.974;23.708;2023-04-25T09:15:54;25.50;35.90
80250;DHT22;69561;37.974;23.708;2023-04-25T09:18:32;25.50;35.90
80250;DHT22;69561;37.974;23.708;2023-04-25T09:21:10;25.50;35.90
80250;DHT22;69561;37.974;23.708;2023-04-25T09:23:47;25.50;35.90
80250;DHT22;69561;37.974;23.708;2023-04-25T09:26:17;25.40;35.80
80250;DHT22;69561;37.974;23.708;2023-04-25T09:28:45;25.50;35.80
80250;DHT22;69561;37.974;23.708;2023-04-25T09:31:11;25.50;35.90
80250;DHT22;69561;37.974;23.708;2023-04-25T09:33:37;25.40;35.80
80250;DHT22;69561;37.974;23.708;2023-04-25T09:36:08;25.40;35.90
80250;DHT22;69561;37.974;23.708;2023-04-25T09:38:44;25.50;36.00
80250;DHT22;69561;37.974;23.708;2023-04-25T09:41:10;25.40;36.00
80250;DHT22;69561;37.974;23.708;2023-04-25T09:43:38;25.40;36.10
80250;DHT22;69561;37.974;23.708;2023-04-25T09:46:11;25.40;36.40
80250;DHT22;69561;37.974;23.708;2023-04-25T09:48:37;25.40;36.50
80250;DHT22;69561;37.974;23.708;2023-04-25T09:51:13;25.40;36.50
80250;DHT22;69561;37.974;23.708;2023-04-25T09:53:45;25.40;36.50
80250;DHT22;69561;37.974;23.708;2023-04-25T09:56:12;25.40;36.40
80250;DHT22;69561;37.974;23.708;2023-04-25T09:58:40;25.50;36.30
80250;DHT22;69561;37.974;23.708;2023-04-25T10:01:10;25.50;36.20
80250;DHT22;69561;37.974;23.708;2023-04-25T10:03:37;25.50;36.00
80250;DHT22;69561;37.974;23.708;2023-04-25T10:06:17;25.50;36.00
80250;DHT22;69561;37.974;23.708;2023-04-25T10:08:44;25.50;36.00
80250;DHT22;69561;37.974;23.708;2023-04-25T10:11:11;25.50;36.20
80250;DHT22;69561;37.974;23.708;2023-04-25T10:13:40;25.50;36.10
80250;DHT22;69561;37.974;23.708;2023-04-25T10:16:07;25.50;36.30
80250;DHT22;69561;37.974;23.708;2023-04-25T10:18:33;25.50;36.30
80250;DHT22;69561;37.974;23.708;2023-04-25T10:21:01;25.50;36.40
80250;DHT22;69561;37.974;23.708;2023-04-25T10:23:27;25.50;36.50
80250;DHT22;69561;37.974;23.708;2023-04-25T10:25:55;25.40;36.30
80250;DHT22;69561;37.974;23.708;2023-04-25T10:28:21;25.50;36.30
80250;DHT22;69561;37.974;23.708;2023-04-25T10:31:03;25.50;36.30
80250;DHT22;69561;37.974;23.708;2023-04-25T10:33:36;25.50;36.20
80250;DHT22;69561;37.974;23.708;2023-04-25T10:36:13;25.50;36.10
80250;DHT22;69561;37.974;23.708;2023-04-25T10:38:39;25.40;36.00
80250;DHT22;69561;37.974;23.708;2023-04-25T10:41:07;25.40;36.00
80250;DHT22;69561;37.974;23.708;2023-04-25T10:46:22;25.30;35.70
80250;DHT22;69561;37.974;23.708;2023-04-25T10:48:56;25.30;35.60
80250;DHT22;69561;37.974;23.708;2023-04-25T10:51:22;25.40;35.60
80250;DHT22;69561;37.974;23.708;2023-04-25T10:58:49;25.40;35.80
80250;DHT22;69561;37.974;23.708;2023-04-25T11:01:20;25.40;35.90
80250;DHT22;69561;37.974;23.708;2023-04-25T11:03:46;25.40;35.80
80250;DHT22;69561;37.974;23.708;2023-04-25T11:09:02;25.30;35.60
80250;DHT22;69561;37.974;23.708;2023-04-25T11:11:36;25.30;35.70
80250;DHT22;69561;37.974;23.708;2023-04-25T11:14:02;25.30;36.70
80250;DHT22;69561;37.974;23.708;2023-04-25T11:16:28;25.30;35.70
80250;DHT22;69561;37.974;23.708;2023-04-25T11:18:56;25.40;35.70
80250;DHT22;69561;37.974;23.708;2023-04-25T11:21:22;25.40;35.70
80250;DHT22;69561;37.974;23.708;2023-04-25T11:23:48;25.40;35.50
80250;DHT22;69561;37.974;23.708;2023-04-25T11:26:14;25.40;35.50
80250;DHT22;69561;37.974;23.708;2023-04-25T11:28:40;25.50;35.40
80250;DHT22;69561;37.974;23.708;2023-04-25T11:31:06;25.50;35.30
80250;DHT22;69561;37.974;23.708;2023-04-25T11:33:32;25.50;35.30
80250;DHT22;69561;37.974;23.708;2023-04-25T11:35:58;25.40;35.30
80250;DHT22;69561;37.974;23.708;2023-04-25T11:38:25;25.50;35.20
80250;DHT22;69561;37.974;23.708;2023-04-25T11:40:52;25.50;35.20
80250;DHT22;69561;37.974;23.708;2023-04-25T11:43:23;25.40;35.10
80250;DHT22;69561;37.974;23.708;2023-04-25T11:45:49;25.40;35.20
80250;DHT22;69561;37.974;23.708;2023-04-25T11:48:16;25.40;35.00
80250;DHT22;69561;37.974;23.708;2023-04-25T11:50:42;25.40;35.00
80250;DHT22;69561;37.974;23.708;2023-04-25T11:53:08;25.40;35.00
80250;DHT22;69561;37.974;23.708;2023-04-25T11:55:34;25.30;34.90
80250;DHT22;69561;37.974;23.708;2023-04-25T11:58:01;25.40;35.10
80250;DHT22;69561;37.974;23.708;2023-04-25T12:00:27;25.30;35.40
80250;DHT22;69561;37.974;23.708;2023-04-25T12:02:54;25.30;35.70
80250;DHT22;69561;37.974;23.708;2023-04-25T12:05:23;25.30;35.90
80250;DHT22;69561;37.974;23.708;2023-04-25T12:07:49;25.30;35.90
80250;DHT22;69561;37.974;23.708;2023-04-25T12:10:16;25.30;35.80
80250;DHT22;69561;37.974;23.708;2023-04-25T12:12:44;25.30;35.70
80250;DHT22;69561;37.974;23.708;2023-04-25T12:17:49;25.40;35.70
80250;DHT22;69561;37.974;23.708;2023-04-25T12:20:18;25.40;35.70
80250;DHT22;69561;37.974;23.708;2023-04-25T12:22:48;25.40;35.70
80250;DHT22;69561;37.974;23.708;2023-04-25T12:28:12;25.40;36.30
80250;DHT22;69561;37.974;23.708;2023-04-25T12:31:05;25.40;35.00
80250;DHT22;69561;37.974;23.708;2023-04-25T12:33:35;25.30;35.10
80250;DHT22;69561;37.974;23.708;2023-04-25T12:36:03;25.30;35.30
80250;DHT22;69561;37.974;23.708;2023-04-25T12:38:41;25.30;35.40
80250;DHT22;69561;37.974;23.708;2023-04-25T12:41:07;25.40;35.60
80250;DHT22;69561;37.974;23.708;2023-04-25T12:43:33;25.40;35.70
80250;DHT22;69561;37.974;23.708;2023-04-25T12:46:00;25.40;35.80
80250;DHT22;69561;37.974;23.708;2023-04-25T12:48:25;25.40;35.90
80250;DHT22;69561;37.974;23.708;2023-04-25T12:50:52;25.50;36.00
80250;DHT22;69561;37.974;23.708;2023-04-25T12:53:19;25.40;36.10
80250;DHT22;69561;37.974;23.708;2023-04-25T12:55:46;25.50;36.10
80250;DHT22;69561;37.974;23.708;2023-04-25T12:58:18;25.50;36.20
80250;DHT22;69561;37.974;23.708;2023-04-25T13:00:44;25.50;36.30
80250;DHT22;69561;37.974;23.708;2023-04-25T13:03:10;25.40;36.30
80250;DHT22;69561;37.974;23.708;2023-04-25T13:05:38;25.50;36.40
80250;DHT22;69561;37.974;23.708;2023-04-25T13:08:04;25.50;36.40
80250;DHT22;69561;37.974;23.708;2023-04-25T13:10:30;25.50;36.30
80250;DHT22;69561;37.974;23.708;2023-04-25T13:12:56;25.50;36.40
80250;DHT22;69561;37.974;23.708;2023-04-25T13:15:22;25.50;36.40
80250;DHT22;69561;37.974;23.708;2023-04-25T13:17:48;25.50;36.40
80250;DHT22;69561;37.974;23.708;2023-04-25T13:20:14;25.50;36.30
80250;DHT22;69561;37.974;23.708;2023-04-25T13:22:41;25.50;36.30
80250;DHT22;69561;37.974;23.708;2023-04-25T13:25:07;25.40;36.10
80250;DHT22;69561;37.974;23.708;2023-04-25T13:27:34;25.40;36.10
80250;DHT22;69561;37.974;23.708;2023-04-25T13:30:01;25.30;36.10
80250;DHT22;69561;37.974;23.708;2023-04-25T13:32:35;25.30;36.10
80250;DHT22;69561;37.974;23.708;2023-04-25T13:35:03;25.20;36.20
80250;DHT22;69561;37.974;23.708;2023-04-25T13:37:29;25.20;36.20
80250;DHT22;69561;37.974;23.708;2023-04-25T13:39:55;25.30;36.10
80250;DHT22;69561;37.974;23.708;2023-04-25T13:42:23;25.30;36.00
80250;DHT22;69561;37.974;23.708;2023-04-25T13:44:48;25.30;35.90
80250;DHT22;69561;37.974;23.708;2023-04-25T13:47:14;25.30;35.90
80250;DHT22;69561;37.974;23.708;2023-04-25T13:49:40;25.30;35.80
80250;DHT22;69561;37.974;23.708;2023-04-25T13:52:05;25.30;35.80
80250;DHT22;69561;37.974;23.708;2023-04-25T13:54:31;25.30;35.70
80250;DHT22;69561;37.974;23.708;2023-04-25T13:56:57;25.20;35.70
80250;DHT22;69561;37.974;23.708;2023-04-25T13:59:24;25.30;35.70
80250;DHT22;69561;37.974;23.708;2023-04-25T14:01:51;25.20;35.60
80250;DHT22;69561;37.974;23.708;2023-04-25T14:04:17;25.20;35.60
80250;DHT22;69561;37.974;23.708;2023-04-25T14:06:43;25.20;35.50
80250;DHT22;69561;37.974;23.708;2023-04-25T14:09:09;25.20;35.40
80250;DHT22;69561;37.974;23.708;2023-04-25T14:11:38;25.20;35.40
80250;DHT22;69561;37.974;23.708;2023-04-25T14:14:04;25.20;35.40
80250;DHT22;69561;37.974;23.708;2023-04-25T14:16:30;25.20;35.50
80250;DHT22;69561;37.974;23.708;2023-04-25T14:18:59;25.10;35.50
80250;DHT22;69561;37.974;23.708;2023-04-25T14:21:26;25.20;35.70
80250;DHT22;69561;37.974;23.708;2023-04-25T14:23:52;25.20;35.70
80250;DHT22;69561;37.974;23.708;2023-04-25T14:26:18;25.10;35.60
80250;DHT22;69561;37.974;23.708;2023-04-25T14:28:44;25.20;35.70
80250;DHT22;69561;37.974;23.708;2023-04-25T14:31:09;25.20;36.80
80250;DHT22;69561;37.974;23.708;2023-04-25T14:33:35;25.10;35.80
80250;DHT22;69561;37.974;23.708;2023-04-25T14:36:02;25.10;35.90
80250;DHT22;69561;37.974;23.708;2023-04-25T14:38:28;25.10;35.90
80250;DHT22;69561;37.974;23.708;2023-04-25T14:40:54;25.10;36.00
80250;DHT22;69561;37.974;23.708;2023-04-25T14:43:20;25.10;36.00
80250;DHT22;69561;37.974;23.708;2023-04-25T14:45:45;25.10;36.10
80250;DHT22;69561;37.974;23.708;2023-04-25T14:48:11;25.10;36.10
80250;DHT22;69561;37.974;23.708;2023-04-25T14:50:37;25.10;36.20
80250;DHT22;69561;37.974;23.708;2023-04-25T14:53:03;25.00;36.20
80250;DHT22;69561;37.974;23.708;2023-04-25T14:55:29;25.10;36.30
80250;DHT22;69561;37.974;23.708;2023-04-25T14:57:55;25.10;36.30
80250;DHT22;69561;37.974;23.708;2023-04-25T15:00:21;25.10;36.40
80250;DHT22;69561;37.974;23.708;2023-04-25T15:02:50;25.10;36.40
80250;DHT22;69561;37.974;23.708;2023-04-25T15:05:17;25.10;36.50
80250;DHT22;69561;37.974;23.708;2023-04-25T15:07:43;25.00;36.40
80250;DHT22;69561;37.974;23.708;2023-04-25T15:10:10;25.10;36.60
80250;DHT22;69561;37.974;23.708;2023-04-25T15:12:41;25.10;36.60
80250;DHT22;69561;37.974;23.708;2023-04-25T15:15:08;25.10;36.60
80250;DHT22;69561;37.974;23.708;2023-04-25T15:17:46;25.00;36.60
80250;DHT22;69561;37.974;23.708;2023-04-25T15:20:13;25.10;36.60
80250;DHT22;69561;37.974;23.708;2023-04-25T15:22:41;25.00;36.60
80250;DHT22;69561;37.974;23.708;2023-04-25T15:25:07;25.00;36.70
80250;DHT22;69561;37.974;23.708;2023-04-25T15:27:34;25.00;36.80
80250;DHT22;69561;37.974;23.708;2023-04-25T15:30:05;25.00;36.80